Time,TemperatureF,DewpointF,PressureIn,WindDirection,WindDirectionDegrees,WindSpeedMPH,WindSpeedGustMPH,Humidity,HourlyPrecipIn,Conditions,Clouds,dailyrainin,SoftwareType,DateUTC
2013-02-17 00:01:00,47.0,37.0,29.93,SSW,198,1.0,3.0,69,0.00,,,0.00,,2013-02-17 08:01:00,
2013-02-17 00:11:00,47.0,37.0,29.93,SSW,198,1.0,3.0,69,0.00,,,0.00,,2013-02-17 08:11:00,
2013-02-17 00:21:00,47.0,38.0,29.94,SW,233,3.0,5.0,70,0.00,,,0.00,,2013-02-17 08:21:00,
2013-02-17 00:31:00,47.0,38.0,29.93,SW,229,0.0,2.0,70,0.00,,,0.00,,2013-02-17 08:31:00,
2013-02-17 00:41:00,47.0,38.0,29.93,SW,229,0.0,2.0,70,0.00,,,0.00,,2013-02-17 08:41:00,
2013-02-17 00:52:00,46.0,37.0,29.93,WSW,243,0.0,2.0,72,0.00,,,0.00,,2013-02-17 08:52:00,
2013-02-17 01:01:00,45.0,38.0,29.93,SW,235,0.0,2.0,75,0.00,,,0.00,,2013-02-17 09:01:00,
2013-02-17 01:11:00,45.0,38.0,29.93,SW,235,0.0,2.0,75,0.00,,,0.00,,2013-02-17 09:11:00,
2013-02-17 01:21:00,46.0,38.0,29.93,West,266,1.0,5.0,74,0.00,,,0.00,,2013-02-17 09:21:00,
2013-02-17 01:31:00,45.0,38.0,29.93,SSW,198,1.0,3.0,75,0.00,,,0.00,,2013-02-17 09:31:00,
2013-02-17 01:41:00,45.0,38.0,29.93,SSW,198,1.0,3.0,75,0.00,,,0.00,,2013-02-17 09:41:00,
2013-02-17 01:51:00,45.0,38.0,29.93,WSW,251,1.0,4.0,76,0.00,,,0.00,,2013-02-17 09:51:00,
2013-02-17 02:01:00,44.0,37.0,29.93,West,271,1.0,3.0,77,0.00,,,0.00,,2013-02-17 10:01:00,
2013-02-17 02:11:00,44.0,37.0,29.93,West,271,1.0,3.0,77,0.00,,,0.00,,2013-02-17 10:11:00,
2013-02-17 02:21:00,44.0,38.0,29.92,WSW,243,1.0,4.0,78,0.00,,,0.00,,2013-02-17 10:21:00,
2013-02-17 02:31:00,44.0,38.0,29.92,SSW,212,1.0,3.0,78,0.00,,,0.00,,2013-02-17 10:31:00,
2013-02-17 02:41:00,44.0,38.0,29.92,SSW,212,1.0,3.0,78,0.00,,,0.00,,2013-02-17 10:41:00,
2013-02-17 02:51:00,44.0,38.0,29.92,SW,226,1.0,3.0,78,0.00,,,0.00,,2013-02-17 10:51:00,
2013-02-17 03:01:00,43.0,37.0,29.92,SSE,166,1.0,3.0,80,0.00,,,0.00,,2013-02-17 11:01:00,
2013-02-17 03:11:00,43.0,37.0,29.92,SSE,166,1.0,3.0,80,0.00,,,0.00,,2013-02-17 11:11:00,
2013-02-17 03:21:00,42.0,37.0,29.91,SSE,151,2.0,3.0,82,0.00,,,0.00,,2013-02-17 11:21:00,
2013-02-17 03:32:00,42.0,38.0,29.90,SSE,153,1.0,3.0,84,0.00,,,0.00,,2013-02-17 11:32:00,
2013-02-17 03:41:00,42.0,38.0,29.90,SSE,153,1.0,3.0,84,0.00,,,0.00,,2013-02-17 11:41:00,
2013-02-17 03:52:00,42.0,37.0,29.90,SSW,209,0.0,3.0,83,0.00,,,0.00,,2013-02-17 11:52:00,
2013-02-17 04:02:00,42.0,37.0,29.90,WSW,248,1.0,5.0,83,0.00,,,0.00,,2013-02-17 12:02:00,
2013-02-17 04:11:00,42.0,37.0,29.90,WSW,248,1.0,5.0,83,0.00,,,0.00,,2013-02-17 12:11:00,
2013-02-17 04:22:00,42.0,37.0,29.90,WSW,246,3.0,5.0,83,0.00,,,0.00,,2013-02-17 12:22:00,
2013-02-17 04:31:00,42.0,37.0,29.90,WSW,253,1.0,5.0,83,0.00,,,0.00,,2013-02-17 12:31:00,
2013-02-17 04:42:00,42.0,37.0,29.90,WSW,253,1.0,5.0,83,0.00,,,0.00,,2013-02-17 12:42:00,
2013-02-17 04:52:00,42.0,38.0,29.90,SW,235,0.0,4.0,84,0.00,,,0.00,,2013-02-17 12:52:00,
2013-02-17 05:02:00,40.0,36.0,29.89,SSE,152,1.0,3.0,86,0.00,,,0.00,,2013-02-17 13:02:00,
2013-02-17 05:11:00,40.0,36.0,29.89,SSE,152,1.0,3.0,86,0.00,,,0.00,,2013-02-17 13:11:00,
2013-02-17 05:21:00,40.0,36.0,29.90,SSE,152,1.0,2.0,87,0.00,,,0.00,,2013-02-17 13:21:00,
2013-02-17 05:32:00,40.0,36.0,29.90,SSE,152,1.0,2.0,87,0.00,,,0.00,,2013-02-17 13:32:00,
2013-02-17 05:41:00,40.0,36.0,29.90,SSE,152,1.0,2.0,87,0.00,,,0.00,,2013-02-17 13:41:00,
2013-02-17 05:51:00,39.0,36.0,29.91,SSW,200,1.0,4.0,89,0.00,,,0.00,,2013-02-17 13:51:00,
2013-02-17 06:01:00,39.0,36.0,29.91,NNW,337,2.0,4.0,89,0.00,,,0.00,,2013-02-17 14:01:00,
2013-02-17 06:11:00,39.0,36.0,29.91,NNW,337,2.0,4.0,89,0.00,,,0.00,,2013-02-17 14:11:00,
2013-02-17 06:21:00,40.0,37.0,29.91,NNW,329,2.0,4.0,88,0.00,,,0.00,,2013-02-17 14:21:00,
2013-02-17 06:32:00,40.0,36.0,29.91,NW,322,0.0,5.0,87,0.00,,,0.00,,2013-02-17 14:32:00,
2013-02-17 06:42:00,40.0,36.0,29.91,NW,322,0.0,5.0,87,0.00,,,0.00,,2013-02-17 14:42:00,
2013-02-17 06:52:00,40.0,36.0,29.91,NNW,342,1.0,4.0,87,0.00,,,0.00,,2013-02-17 14:52:00,
2013-02-17 07:01:00,40.0,37.0,29.92,WNW,300,0.0,4.0,88,0.00,,,0.00,,2013-02-17 15:01:00,
2013-02-17 07:11:00,40.0,37.0,29.92,WNW,300,0.0,4.0,88,0.00,,,0.00,,2013-02-17 15:11:00,
2013-02-17 07:21:00,39.0,36.0,29.92,West,260,0.0,2.0,88,0.00,,,0.00,,2013-02-17 15:21:00,
2013-02-17 07:31:00,38.0,35.0,29.92,NW,306,0.0,2.0,90,0.00,,,0.00,,2013-02-17 15:31:00,
2013-02-17 07:41:00,38.0,35.0,29.92,NW,306,0.0,2.0,90,0.00,,,0.00,,2013-02-17 15:41:00,
2013-02-17 07:52:00,39.0,36.0,29.92,NW,325,0.0,2.0,90,0.00,,,0.00,,2013-02-17 15:52:00,
2013-02-17 08:01:00,38.0,35.0,29.92,ENE,60,1.0,2.0,90,0.00,,,0.00,,2013-02-17 16:01:00,
2013-02-17 08:11:00,38.0,35.0,29.92,ENE,60,1.0,2.0,90,0.00,,,0.00,,2013-02-17 16:11:00,
2013-02-17 08:21:00,38.0,35.0,29.92,ENE,60,1.0,2.0,90,0.00,,,0.00,,2013-02-17 16:21:00,
2013-02-17 08:31:00,40.0,37.0,29.92,SE,141,0.0,1.0,89,0.00,,,0.00,,2013-02-17 16:31:00,
2013-02-17 08:41:00,40.0,37.0,29.92,SE,141,0.0,1.0,89,0.00,,,0.00,,2013-02-17 16:41:00,
2013-02-17 08:52:00,40.0,37.0,29.93,NNW,342,1.0,2.0,89,0.00,,,0.00,,2013-02-17 16:52:00,
2013-02-17 09:02:00,41.0,38.0,29.93,NNW,340,0.0,1.0,88,0.00,,,0.00,,2013-02-17 17:02:00,
2013-02-17 09:11:00,41.0,38.0,29.93,NNW,340,0.0,1.0,88,0.00,,,0.00,,2013-02-17 17:11:00,
2013-02-17 09:21:00,44.0,39.0,29.93,NNW,342,0.0,4.0,84,0.00,,,0.00,,2013-02-17 17:21:00,
2013-02-17 09:31:00,46.0,40.0,29.94,WNW,293,2.0,5.0,80,0.00,,,0.00,,2013-02-17 17:31:00,
2013-02-17 09:41:00,46.0,40.0,29.94,WNW,293,2.0,5.0,80,0.00,,,0.00,,2013-02-17 17:41:00,
2013-02-17 09:52:00,48.0,40.0,29.93,North,360,0.0,3.0,74,0.00,,,0.00,,2013-02-17 17:52:00,
2013-02-17 10:01:00,49.0,41.0,29.93,NW,319,1.0,3.0,74,0.00,,,0.00,,2013-02-17 18:01:00,
2013-02-17 10:11:00,49.0,41.0,29.93,NW,319,1.0,3.0,74,0.00,,,0.00,,2013-02-17 18:11:00,
2013-02-17 10:21:00,51.0,41.0,29.93,ENE,73,0.0,3.0,68,0.00,,,0.00,,2013-02-17 18:21:00,
2013-02-17 10:33:00,52.0,43.0,29.94,NW,321,1.0,4.0,70,0.00,,,0.00,,2013-02-17 18:33:00,
2013-02-17 10:42:00,52.0,43.0,29.94,NW,321,1.0,4.0,70,0.00,,,0.00,,2013-02-17 18:42:00,
2013-02-17 10:52:00,55.0,43.0,29.94,WNW,296,2.0,3.0,64,0.00,,,0.00,,2013-02-17 18:52:00,
2013-02-17 11:01:00,55.0,43.0,29.94,WNW,296,2.0,3.0,64,0.00,,,0.00,,2013-02-17 19:01:00,
2013-02-17 11:11:00,55.0,43.0,29.94,WNW,296,2.0,3.0,64,0.00,,,0.00,,2013-02-17 19:11:00,
2013-02-17 11:21:00,57.0,44.0,29.93,NW,321,0.0,4.0,61,0.00,,,0.00,,2013-02-17 19:21:00,
2013-02-17 11:32:00,58.0,43.0,29.93,West,271,2.0,4.0,57,0.00,,,0.00,,2013-02-17 19:32:00,
2013-02-17 11:42:00,58.0,43.0,29.93,West,271,2.0,4.0,57,0.00,,,0.00,,2013-02-17 19:42:00,
2013-02-17 11:52:00,60.0,42.0,29.93,WNW,286,1.0,4.0,51,0.00,,,0.00,,2013-02-17 19:52:00,
2013-02-17 12:01:00,62.0,43.0,29.93,NW,319,1.0,5.0,50,0.00,,,0.00,,2013-02-17 20:01:00,
2013-02-17 12:11:00,62.0,43.0,29.93,NW,319,1.0,5.0,50,0.00,,,0.00,,2013-02-17 20:11:00,
2013-02-17 12:21:00,62.0,43.0,29.92,WNW,290,4.0,7.0,50,0.00,,,0.00,,2013-02-17 20:21:00,
2013-02-17 12:31:00,64.0,43.0,29.92,NW,319,2.0,8.0,47,0.00,,,0.00,,2013-02-17 20:31:00,
2013-02-17 12:42:00,64.0,43.0,29.92,NW,319,2.0,8.0,47,0.00,,,0.00,,2013-02-17 20:42:00,
2013-02-17 12:52:00,64.0,43.0,29.91,West,268,3.0,7.0,47,0.00,,,0.00,,2013-02-17 20:52:00,
2013-02-17 13:01:00,64.0,42.0,29.90,NNW,342,2.0,6.0,45,0.00,,,0.00,,2013-02-17 21:01:00,
2013-02-17 13:11:00,64.0,42.0,29.90,NNW,342,2.0,6.0,45,0.00,,,0.00,,2013-02-17 21:11:00,
2013-02-17 13:21:00,65.0,43.0,29.89,West,279,4.0,8.0,44,0.00,,,0.00,,2013-02-17 21:21:00,
2013-02-17 13:31:00,65.0,44.0,29.89,West,263,3.0,6.0,46,0.00,,,0.00,,2013-02-17 21:31:00,
2013-02-17 13:41:00,65.0,44.0,29.89,West,263,3.0,6.0,46,0.00,,,0.00,,2013-02-17 21:41:00,
2013-02-17 13:53:00,66.0,43.0,29.89,SSW,209,3.0,9.0,43,0.00,,,0.00,,2013-02-17 21:53:00,
2013-02-17 14:01:00,67.0,44.0,29.88,WNW,302,3.0,8.0,43,0.00,,,0.00,,2013-02-17 22:01:00,
2013-02-17 14:11:00,67.0,44.0,29.88,WNW,302,3.0,8.0,43,0.00,,,0.00,,2013-02-17 22:11:00,
2013-02-17 14:21:00,66.0,42.0,29.88,SW,226,4.0,9.0,42,0.00,,,0.00,,2013-02-17 22:21:00,
2013-02-17 14:32:00,66.0,42.0,29.88,West,269,4.0,11.0,41,0.00,,,0.00,,2013-02-17 22:32:00,
2013-02-17 14:41:00,66.0,42.0,29.88,West,269,4.0,11.0,41,0.00,,,0.00,,2013-02-17 22:41:00,
2013-02-17 14:52:00,66.0,42.0,29.88,NW,319,4.0,8.0,41,0.00,,,0.00,,2013-02-17 22:52:00,
2013-02-17 15:01:00,66.0,42.0,29.88,WSW,248,4.0,9.0,42,0.00,,,0.00,,2013-02-17 23:01:00,
2013-02-17 15:11:00,66.0,42.0,29.88,WSW,248,4.0,9.0,42,0.00,,,0.00,,2013-02-17 23:11:00,
2013-02-17 15:21:00,65.0,43.0,29.88,WSW,242,3.0,8.0,45,0.00,,,0.00,,2013-02-17 23:21:00,
2013-02-17 15:31:00,66.0,43.0,29.88,SW,222,4.0,8.0,44,0.00,,,0.00,,2013-02-17 23:31:00,
2013-02-17 15:41:00,66.0,43.0,29.88,SW,222,4.0,8.0,44,0.00,,,0.00,,2013-02-17 23:41:00,
2013-02-17 15:52:00,66.0,43.0,29.88,SW,222,4.0,8.0,44,0.00,,,0.00,,2013-02-17 23:52:00,
2013-02-17 16:01:00,65.0,43.0,29.87,SSW,194,2.0,6.0,44,0.00,,,0.00,,2013-02-18 00:01:00,
2013-02-17 16:11:00,65.0,43.0,29.87,SSW,194,2.0,6.0,44,0.00,,,0.00,,2013-02-18 00:11:00,
2013-02-17 16:22:00,65.0,43.0,29.87,SSW,194,2.0,6.0,44,0.00,,,0.00,,2013-02-18 00:22:00,
2013-02-17 16:31:00,63.0,41.0,29.87,WSW,250,1.0,5.0,45,0.00,,,0.00,,2013-02-18 00:31:00,
2013-02-17 16:41:00,63.0,41.0,29.87,WSW,250,1.0,5.0,45,0.00,,,0.00,,2013-02-18 00:41:00,
2013-02-17 16:52:00,61.0,40.0,29.87,SW,230,2.0,8.0,46,0.00,,,0.00,,2013-02-18 00:52:00,
2013-02-17 17:01:00,60.0,40.0,29.86,SSE,165,0.0,3.0,47,0.00,,,0.00,,2013-02-18 01:01:00,
2013-02-17 17:11:00,60.0,40.0,29.86,SSE,165,0.0,3.0,47,0.00,,,0.00,,2013-02-18 01:11:00,
2013-02-17 17:21:00,58.0,39.0,29.87,South,189,1.0,5.0,50,0.00,,,0.00,,2013-02-18 01:21:00,
2013-02-17 17:31:00,57.0,39.0,29.87,SSW,196,1.0,4.0,51,0.00,,,0.00,,2013-02-18 01:31:00,
2013-02-17 17:41:00,57.0,39.0,29.87,SSW,196,1.0,4.0,51,0.00,,,0.00,,2013-02-18 01:41:00,
2013-02-17 17:52:00,54.0,39.0,29.86,SSE,148,1.0,4.0,56,0.00,,,0.00,,2013-02-18 01:52:00,
2013-02-17 18:01:00,52.0,39.0,29.87,SSW,198,1.0,4.0,61,0.00,,,0.00,,2013-02-18 02:01:00,
2013-02-17 18:21:00,50.0,38.0,29.87,SSE,156,1.0,3.0,64,0.00,,,0.00,,2013-02-18 02:21:00,
2013-02-17 18:31:00,49.0,37.0,29.87,SE,142,0.0,3.0,64,0.00,,,0.00,,2013-02-18 02:31:00,
2013-02-17 18:41:00,49.0,37.0,29.87,SE,142,0.0,3.0,64,0.00,,,0.00,,2013-02-18 02:41:00,
2013-02-17 18:52:00,49.0,37.0,29.87,SE,136,2.0,4.0,63,0.00,,,0.00,,2013-02-18 02:52:00,
2013-02-17 19:01:00,49.0,36.0,29.87,SW,219,2.0,4.0,60,0.00,,,0.00,,2013-02-18 03:01:00,
2013-02-17 19:11:00,49.0,36.0,29.87,SW,219,2.0,4.0,60,0.00,,,0.00,,2013-02-18 03:11:00,
2013-02-17 19:21:00,49.0,36.0,29.88,SSE,150,1.0,3.0,60,0.00,,,0.00,,2013-02-18 03:21:00,
2013-02-17 19:31:00,48.0,35.0,29.88,SSW,210,0.0,2.0,61,0.00,,,0.00,,2013-02-18 03:31:00,
2013-02-17 19:41:00,48.0,35.0,29.88,SSW,210,0.0,2.0,61,0.00,,,0.00,,2013-02-18 03:41:00,
2013-02-17 19:52:00,47.0,35.0,29.88,SSE,159,2.0,3.0,64,0.00,,,0.00,,2013-02-18 03:52:00,
2013-02-17 20:01:00,46.0,35.0,29.88,SSE,159,1.0,3.0,64,0.00,,,0.00,,2013-02-18 04:01:00,
2013-02-17 20:11:00,46.0,35.0,29.88,SSE,159,1.0,3.0,64,0.00,,,0.00,,2013-02-18 04:11:00,
2013-02-17 20:21:00,46.0,35.0,29.88,SSE,157,2.0,3.0,64,0.00,,,0.00,,2013-02-18 04:21:00,
2013-02-17 20:32:00,45.0,34.0,29.88,SSE,148,1.0,3.0,66,0.00,,,0.00,,2013-02-18 04:32:00,
2013-02-17 20:41:00,45.0,34.0,29.88,SSE,148,1.0,3.0,66,0.00,,,0.00,,2013-02-18 04:41:00,
2013-02-17 20:52:00,45.0,34.0,29.88,SSE,148,1.0,2.0,66,0.00,,,0.00,,2013-02-18 04:52:00,
2013-02-17 21:01:00,45.0,35.0,29.88,SSE,148,2.0,3.0,67,0.00,,,0.00,,2013-02-18 05:01:00,
2013-02-17 21:11:00,45.0,35.0,29.88,SSE,148,2.0,3.0,67,0.00,,,0.00,,2013-02-18 05:11:00,
2013-02-17 21:21:00,45.0,35.0,29.88,SSE,148,2.0,3.0,67,0.00,,,0.00,,2013-02-18 05:21:00,
2013-02-17 21:31:00,44.0,34.0,29.89,SSE,148,1.0,3.0,67,0.00,,,0.00,,2013-02-18 05:31:00,
2013-02-17 21:41:00,44.0,34.0,29.89,SSE,148,1.0,3.0,67,0.00,,,0.00,,2013-02-18 05:41:00,
2013-02-17 21:52:00,44.0,34.0,29.89,SSE,148,1.0,2.0,67,0.00,,,0.00,,2013-02-18 05:52:00,
2013-02-17 22:02:00,44.0,34.0,29.90,SSE,148,1.0,2.0,68,0.00,,,0.00,,2013-02-18 06:02:00,
2013-02-17 22:11:00,44.0,34.0,29.90,SSE,148,1.0,2.0,68,0.00,,,0.00,,2013-02-18 06:11:00,
2013-02-17 22:21:00,43.0,34.0,29.90,SSE,148,1.0,2.0,70,0.00,,,0.00,,2013-02-18 06:21:00,
2013-02-17 22:31:00,42.0,33.0,29.90,SSE,148,1.0,3.0,71,0.00,,,0.00,,2013-02-18 06:31:00,
2013-02-17 22:41:00,42.0,33.0,29.90,SSE,148,1.0,3.0,71,0.00,,,0.00,,2013-02-18 06:41:00,
2013-02-17 22:52:00,42.0,33.0,29.90,SSE,148,2.0,3.0,71,0.00,,,0.00,,2013-02-18 06:52:00,
2013-02-17 23:01:00,42.0,33.0,29.89,SSE,148,2.0,3.0,71,0.00,,,0.00,,2013-02-18 07:01:00,
2013-02-17 23:11:00,42.0,33.0,29.89,SSE,148,2.0,3.0,71,0.00,,,0.00,,2013-02-18 07:11:00,
2013-02-17 23:21:00,42.0,34.0,29.90,SSE,148,2.0,3.0,72,0.00,,,0.00,,2013-02-18 07:21:00,
2013-02-17 23:31:00,42.0,34.0,29.89,SE,146,2.0,3.0,73,0.00,,,0.00,,2013-02-18 07:31:00,
2013-02-17 23:42:00,42.0,34.0,29.89,SE,146,2.0,3.0,73,0.00,,,0.00,,2013-02-18 07:42:00,
2013-02-17 23:52:00,42.0,35.0,29.90,SE,145,1.0,3.0,75,0.00,,,0.00,,2013-02-18 07:52:00,